createdAt,value
2022-08-03T00:00:20.424Z,0.00
2022-08-03T00:01:20.408Z,0.00
2022-08-03T00:02:20.412Z,0.00
2022-08-03T00:03:20.465Z,0.00
2022-08-03T00:04:20.351Z,0.00
2022-08-03T00:05:20.335Z,0.00
2022-08-03T00:06:20.314Z,0.00
2022-08-03T00:07:20.326Z,0.00
2022-08-03T00:08:20.280Z,0.00
2022-08-03T00:09:20.259Z,0.00
2022-08-03T00:10:20.237Z,0.00
2022-08-03T00:11:20.218Z,0.00
2022-08-03T00:12:20.233Z,0.00
2022-08-03T00:13:20.181Z,0.00
2022-08-03T00:14:20.165Z,0.00
2022-08-03T00:15:20.867Z,0.00
2022-08-03T00:16:20.127Z,0.00
2022-08-03T00:17:20.133Z,0.00
2022-08-03T00:18:20.091Z,0.00
2022-08-03T00:19:20.071Z,0.00
2022-08-03T00:20:20.049Z,0.00
2022-08-03T00:21:20.029Z,0.00
2022-08-03T00:22:20.039Z,0.00
2022-08-03T00:23:20.001Z,0.00
2022-08-03T00:24:19.973Z,0.00
2022-08-03T00:25:19.960Z,0.00
2022-08-03T00:26:19.940Z,0.00
2022-08-03T00:27:19.947Z,0.00
2022-08-03T00:28:19.900Z,0.00
2022-08-03T00:29:19.888Z,0.00
2022-08-03T00:30:19.894Z,0.00
2022-08-03T00:31:38.023Z,0.00
2022-08-03T00:32:20.858Z,0.00
2022-08-03T00:33:19.810Z,0.00
2022-08-03T00:34:26.137Z,0.00
2022-08-03T00:35:35.132Z,0.00
2022-08-03T00:36:20.756Z,0.00
2022-08-03T00:37:19.765Z,0.00
2022-08-03T00:38:19.714Z,0.00
2022-08-03T00:39:19.727Z,0.00
2022-08-03T00:40:19.682Z,0.00
2022-08-03T00:41:19.661Z,0.00
2022-08-03T00:42:19.666Z,0.00
2022-08-03T00:43:19.623Z,0.00
2022-08-03T00:44:19.603Z,0.00
2022-08-03T00:45:19.590Z,0.00
2022-08-03T00:46:21.952Z,0.00
2022-08-03T00:47:20.575Z,0.00
2022-08-03T00:48:33.457Z,0.00
2022-08-03T00:49:20.563Z,0.00
2022-08-03T00:50:19.490Z,0.00
2022-08-03T00:51:19.471Z,0.00
2022-08-03T00:52:19.680Z,0.00
2022-08-03T00:53:19.436Z,0.00
2022-08-03T00:54:19.413Z,0.00
2022-08-03T00:55:19.392Z,0.00
2022-08-03T00:56:19.376Z,0.00
2022-08-03T00:57:19.387Z,0.00
2022-08-03T00:58:19.338Z,0.00
2022-08-03T00:59:19.349Z,0.00
2022-08-03T01:00:19.304Z,0.00
2022-08-03T01:01:19.308Z,0.00
2022-08-03T01:02:19.292Z,0.00
2022-08-03T01:03:19.245Z,0.00
2022-08-03T01:04:19.250Z,0.00
2022-08-03T01:05:19.206Z,0.00
2022-08-03T01:06:19.187Z,0.00
2022-08-03T01:07:19.190Z,0.00
2022-08-03T01:08:19.147Z,0.00
2022-08-03T01:09:19.125Z,0.00
2022-08-03T01:10:19.103Z,0.00
2022-08-03T01:11:19.090Z,0.00
2022-08-03T01:12:19.092Z,0.00
2022-08-03T01:14:03.525Z,0.00
2022-08-03T01:14:20.244Z,0.00
2022-08-03T01:15:19.009Z,0.00
2022-08-03T01:16:18.995Z,0.00
2022-08-03T01:17:19.013Z,0.00
2022-08-03T01:18:18.953Z,0.00
2022-08-03T01:19:18.937Z,0.00
2022-08-03T01:20:18.918Z,0.00
2022-08-03T01:21:18.898Z,0.00
2022-08-03T01:22:18.904Z,0.00
2022-08-03T01:23:18.859Z,0.00
2022-08-03T01:24:18.841Z,0.00
2022-08-03T01:25:18.820Z,0.00
2022-08-03T01:26:18.804Z,0.00
2022-08-03T01:27:18.810Z,0.00
2022-08-03T01:28:18.765Z,0.00
2022-08-03T01:29:18.749Z,0.00
2022-08-03T01:30:18.727Z,0.00
2022-08-03T01:31:18.708Z,0.00
2022-08-03T01:33:00.126Z,0.00
2022-08-03T01:33:19.666Z,0.00
2022-08-03T01:34:18.653Z,0.00
2022-08-03T01:35:18.647Z,0.00
2022-08-03T01:36:18.633Z,0.00
2022-08-03T01:37:18.621Z,0.00
2022-08-03T01:38:18.569Z,0.00
2022-08-03T01:39:18.550Z,0.00
2022-08-03T01:40:18.557Z,0.00
2022-08-03T01:41:18.509Z,0.00
2022-08-03T01:42:18.618Z,0.00
2022-08-03T01:44:26.702Z,0.00
2022-08-03T01:44:27.984Z,0.00
2022-08-03T01:45:19.465Z,0.00
2022-08-03T01:46:18.414Z,0.00
2022-08-03T01:47:18.420Z,0.00
2022-08-03T01:48:18.373Z,0.00
2022-08-03T01:49:18.461Z,0.00
2022-08-03T01:50:18.341Z,0.00
2022-08-03T01:51:18.315Z,0.00
2022-08-03T01:52:18.467Z,0.00
2022-08-03T01:53:18.306Z,0.00
2022-08-03T01:54:18.261Z,0.00
2022-08-03T01:55:18.236Z,0.00
2022-08-03T01:56:18.245Z,0.00
2022-08-03T01:57:18.200Z,0.00
2022-08-03T01:58:18.205Z,0.00
2022-08-03T01:59:18.160Z,0.00
2022-08-03T02:00:18.140Z,0.00
2022-08-03T02:01:18.266Z,0.00
2022-08-03T02:02:33.560Z,0.00
2022-08-03T02:03:20.108Z,0.00
2022-08-03T02:04:18.061Z,0.00
2022-08-03T02:05:18.042Z,0.00
2022-08-03T02:06:59.884Z,0.00
2022-08-03T02:07:20.004Z,0.00
2022-08-03T02:08:18.011Z,0.00
2022-08-03T02:09:17.966Z,0.00
2022-08-03T02:10:34.725Z,0.00
2022-08-03T02:11:18.927Z,0.00
2022-08-03T02:12:18.156Z,0.00
2022-08-03T02:13:17.917Z,0.00
2022-08-03T02:14:17.869Z,0.00
2022-08-03T02:15:17.844Z,0.00
2022-08-03T02:16:17.827Z,0.00
2022-08-03T02:17:17.810Z,0.00
2022-08-03T02:18:17.816Z,0.00
2022-08-03T02:19:17.768Z,0.00
2022-08-03T02:20:17.748Z,0.00
2022-08-03T02:21:55.810Z,0.00
2022-08-03T02:22:18.708Z,0.00
2022-08-03T02:23:17.716Z,0.00
2022-08-03T02:24:17.667Z,0.00
2022-08-03T02:25:17.653Z,0.00
2022-08-03T02:26:17.635Z,0.00
2022-08-03T02:27:17.608Z,0.00
2022-08-03T02:28:17.620Z,0.00
2022-08-03T02:29:17.568Z,0.00
2022-08-03T02:30:17.547Z,0.00
2022-08-03T02:31:17.556Z,0.00
2022-08-03T02:32:17.863Z,0.00
2022-08-03T02:33:17.519Z,0.00
2022-08-03T02:34:17.467Z,0.00
2022-08-03T02:35:17.451Z,0.00
2022-08-03T02:36:17.431Z,0.00
2022-08-03T02:37:17.407Z,0.00
2022-08-03T02:38:17.420Z,0.00
2022-08-03T02:39:17.371Z,0.00
2022-08-03T02:40:17.350Z,0.00
2022-08-03T02:41:17.330Z,0.00
2022-08-03T02:42:17.726Z,0.00
2022-08-03T02:43:17.315Z,0.00
2022-08-03T02:44:17.270Z,0.00
2022-08-03T02:45:17.250Z,0.00
2022-08-03T02:46:17.231Z,0.00
2022-08-03T02:47:17.209Z,0.00
2022-08-03T02:48:17.217Z,0.00
2022-08-03T02:49:40.865Z,0.00
2022-08-03T02:50:18.233Z,0.00
2022-08-03T02:51:17.129Z,0.00
2022-08-03T02:52:17.371Z,0.00
2022-08-03T02:53:17.120Z,0.00
2022-08-03T02:54:17.066Z,0.00
2022-08-03T02:55:17.051Z,0.00
2022-08-03T02:56:17.028Z,0.00
2022-08-03T02:57:17.016Z,0.00
2022-08-03T02:58:17.019Z,0.00
2022-08-03T02:59:16.974Z,0.00
2022-08-03T03:00:19.936Z,0.00
2022-08-03T03:01:17.976Z,0.00
2022-08-03T03:02:17.365Z,0.00
2022-08-03T03:03:16.927Z,0.00
2022-08-03T03:04:16.877Z,0.00
2022-08-03T03:05:55.377Z,0.00
2022-08-03T03:06:17.831Z,0.00
2022-08-03T03:07:16.816Z,0.00
2022-08-03T03:08:17.662Z,0.00
2022-08-03T03:09:16.771Z,0.00
2022-08-03T03:10:16.755Z,0.00
2022-08-03T03:11:16.735Z,0.00
2022-08-03T03:12:16.953Z,0.00
2022-08-03T03:13:16.720Z,0.00
2022-08-03T03:14:16.676Z,0.00
2022-08-03T03:15:17.661Z,0.00
2022-08-03T03:16:16.635Z,0.00
2022-08-03T03:17:16.618Z,0.00
2022-08-03T03:18:20.215Z,0.00
2022-08-03T03:19:18.579Z,0.00
2022-08-03T03:20:16.562Z,0.00
2022-08-03T03:21:17.538Z,0.00
2022-08-03T03:22:16.715Z,0.00
2022-08-03T03:23:16.526Z,0.00
2022-08-03T03:24:16.477Z,0.00
2022-08-03T03:25:16.457Z,0.00
2022-08-03T03:26:16.443Z,0.00
2022-08-03T03:27:16.708Z,0.00
2022-08-03T03:28:16.424Z,0.00
2022-08-03T03:29:16.378Z,0.00
2022-08-03T03:30:16.360Z,0.00
2022-08-03T03:31:16.337Z,5.62
2022-08-03T03:32:16.645Z,5.62
2022-08-03T03:33:16.329Z,5.62
2022-08-03T03:34:16.276Z,5.62
2022-08-03T03:35:16.256Z,5.62
2022-08-03T03:36:16.237Z,5.62
2022-08-03T03:37:16.216Z,5.62
2022-08-03T03:38:16.223Z,11.25
2022-08-03T03:39:16.247Z,11.25
2022-08-03T03:40:16.155Z,11.25
2022-08-03T03:41:16.133Z,11.25
2022-08-03T03:42:16.533Z,11.25
2022-08-03T03:43:16.120Z,16.88
2022-08-03T03:44:16.074Z,16.88
2022-08-03T03:45:16.052Z,16.88
2022-08-03T03:46:16.030Z,22.50
2022-08-03T03:47:16.637Z,22.50
2022-08-03T03:48:16.017Z,22.50
2022-08-03T03:49:15.977Z,28.12
2022-08-03T03:50:15.948Z,28.12
2022-08-03T03:51:15.930Z,33.75
2022-08-03T03:52:16.162Z,33.75
2022-08-03T03:53:15.951Z,39.38
2022-08-03T03:54:15.869Z,39.38
2022-08-03T03:55:15.850Z,45.00
2022-08-03T03:56:15.825Z,50.62
2022-08-03T03:57:15.819Z,73.12
2022-08-03T03:58:15.812Z,101.25
2022-08-03T03:59:15.764Z,140.62
2022-08-03T04:00:15.746Z,168.75
2022-08-03T04:01:15.777Z,191.25
2022-08-03T04:02:15.895Z,208.12
2022-08-03T04:03:15.707Z,236.25
2022-08-03T04:04:15.665Z,247.50
2022-08-03T04:05:15.653Z,264.38
2022-08-03T04:06:15.622Z,298.12
2022-08-03T04:07:15.602Z,343.12
2022-08-03T04:08:15.609Z,360.00
2022-08-03T04:09:15.574Z,399.38
2022-08-03T04:10:15.543Z,427.50
2022-08-03T04:11:15.533Z,433.12
2022-08-03T04:12:15.744Z,489.38
2022-08-03T04:13:15.522Z,556.88
2022-08-03T04:14:15.469Z,551.25
2022-08-03T04:15:15.452Z,562.50
2022-08-03T04:16:15.428Z,579.38
2022-08-03T04:17:15.420Z,540.00
2022-08-03T04:18:15.419Z,613.12
2022-08-03T04:19:19.651Z,708.75
2022-08-03T04:20:17.355Z,753.75
2022-08-03T04:21:15.347Z,804.38
2022-08-03T04:22:15.509Z,804.38
2022-08-03T04:23:15.787Z,855.00
2022-08-03T04:24:15.279Z,843.75
2022-08-03T04:25:15.267Z,877.50
2022-08-03T04:26:15.243Z,961.88
2022-08-03T04:27:15.250Z,990.00
2022-08-03T04:28:30.362Z,1029.38
2022-08-03T04:29:16.191Z,1113.75
2022-08-03T04:30:15.162Z,1102.50
2022-08-03T04:31:15.142Z,1096.88
2022-08-03T04:32:15.338Z,1164.38
2022-08-03T04:33:15.113Z,1164.38
2022-08-03T04:34:15.117Z,1226.25
2022-08-03T04:35:15.069Z,1282.50
2022-08-03T04:36:15.052Z,1338.75
2022-08-03T04:37:15.034Z,1378.12
2022-08-03T04:38:15.019Z,1496.25
2022-08-03T04:39:15.025Z,1507.50
2022-08-03T04:40:14.985Z,1485.00
2022-08-03T04:41:14.971Z,1591.88
2022-08-03T04:42:14.947Z,1586.25
2022-08-03T04:43:14.925Z,1710.00
2022-08-03T04:44:14.932Z,1743.75
2022-08-03T04:45:14.911Z,1575.00
2022-08-03T04:46:14.874Z,1687.50
2022-08-03T04:47:14.852Z,1693.12
2022-08-03T04:48:14.838Z,1558.12
2022-08-03T04:49:14.902Z,1732.50
2022-08-03T04:50:19.428Z,1856.25
2022-08-03T04:51:16.784Z,1738.12
2022-08-03T04:52:14.885Z,1462.50
2022-08-03T04:53:14.792Z,1620.00
2022-08-03T04:54:14.759Z,1856.25
2022-08-03T04:55:14.716Z,1951.88
2022-08-03T04:56:14.697Z,1783.12
2022-08-03T04:57:22.683Z,1828.12
2022-08-03T04:58:15.663Z,1940.62
2022-08-03T04:59:14.677Z,1552.50
2022-08-03T05:00:14.633Z,1102.50
2022-08-03T05:01:14.657Z,945.00
2022-08-03T05:02:14.970Z,900.00
2022-08-03T05:03:23.988Z,1524.38
2022-08-03T05:04:15.591Z,1873.12
2022-08-03T05:05:14.542Z,1710.00
2022-08-03T05:06:14.523Z,1636.88
2022-08-03T05:07:14.507Z,1906.88
2022-08-03T05:08:14.486Z,2109.38
2022-08-03T05:09:14.526Z,2435.62
2022-08-03T05:10:15.977Z,1794.38
2022-08-03T05:11:14.435Z,1614.38
2022-08-03T05:12:14.754Z,1771.88
2022-08-03T05:13:14.413Z,2143.12
2022-08-03T05:14:14.409Z,2463.75
2022-08-03T05:15:14.364Z,2812.50
2022-08-03T05:16:14.347Z,2739.38
2022-08-03T05:17:14.360Z,2503.12
2022-08-03T05:18:14.514Z,2379.38
2022-08-03T05:19:14.325Z,1991.25
2022-08-03T05:20:16.659Z,1811.25
2022-08-03T05:21:14.261Z,1946.25
2022-08-03T05:22:14.521Z,2064.38
2022-08-03T05:23:14.228Z,2086.88
2022-08-03T05:24:14.235Z,2413.12
2022-08-03T05:25:17.401Z,2424.38
2022-08-03T05:26:16.172Z,2379.38
2022-08-03T05:27:14.159Z,2188.12
2022-08-03T05:28:14.137Z,2311.88
2022-08-03T05:29:14.182Z,2553.75
2022-08-03T05:30:30.589Z,2098.12
2022-08-03T05:31:15.088Z,2041.88
2022-08-03T05:32:14.072Z,2041.88
2022-08-03T05:33:14.103Z,2053.12
2022-08-03T05:34:14.064Z,2137.50
2022-08-03T05:35:57.187Z,2379.38
2022-08-03T05:36:15.004Z,2716.88
2022-08-03T05:37:13.993Z,2773.12
2022-08-03T05:38:13.967Z,2514.38
2022-08-03T05:39:14.979Z,2390.62
2022-08-03T05:40:13.932Z,1906.88
2022-08-03T05:41:22.066Z,2615.62
2022-08-03T05:42:15.085Z,2840.62
2022-08-03T05:43:13.890Z,2947.50
2022-08-03T05:44:13.895Z,2936.25
2022-08-03T05:45:13.852Z,3088.12
2022-08-03T05:46:13.841Z,3256.88
2022-08-03T05:47:13.817Z,3133.12
2022-08-03T05:48:13.803Z,3099.38
2022-08-03T05:49:13.868Z,3200.62
2022-08-03T05:50:13.763Z,2784.38
2022-08-03T05:51:13.793Z,2902.50
2022-08-03T05:52:15.184Z,2671.88
2022-08-03T05:53:13.717Z,2806.88
2022-08-03T05:54:13.732Z,3223.12
2022-08-03T05:55:13.683Z,3436.88
2022-08-03T05:56:15.987Z,3307.50
2022-08-03T05:57:13.653Z,3380.62
2022-08-03T05:58:13.643Z,3459.38
2022-08-03T05:59:36.973Z,3341.25
2022-08-03T06:00:15.675Z,3521.25
2022-08-03T06:01:13.647Z,3577.50
2022-08-03T06:02:13.579Z,3425.62
2022-08-03T06:03:13.557Z,3476.25
2022-08-03T06:04:13.568Z,3611.25
2022-08-03T06:05:13.525Z,3780.00
2022-08-03T06:06:13.511Z,3543.75
2022-08-03T06:07:13.495Z,3386.25
2022-08-03T06:08:15.523Z,3650.62
2022-08-03T06:09:13.488Z,3819.38
2022-08-03T06:10:36.357Z,3690.00
2022-08-03T06:11:14.443Z,3712.50
2022-08-03T06:12:14.281Z,3622.50
2022-08-03T06:13:14.412Z,3493.12
2022-08-03T06:14:13.416Z,3549.38
2022-08-03T06:15:13.371Z,3808.12
2022-08-03T06:16:13.353Z,3903.75
2022-08-03T06:17:13.339Z,3695.62
2022-08-03T06:18:13.352Z,3650.62
2022-08-03T06:19:13.337Z,3661.88
2022-08-03T06:20:13.292Z,3881.25
2022-08-03T06:21:15.244Z,3870.00
2022-08-03T06:22:13.264Z,3830.62
2022-08-03T06:23:17.876Z,3796.88
2022-08-03T06:24:13.259Z,3836.25
2022-08-03T06:25:13.219Z,4083.75
2022-08-03T06:26:13.435Z,4218.75
2022-08-03T06:27:13.185Z,4050.00
2022-08-03T06:28:35.411Z,3785.62
2022-08-03T06:29:15.186Z,3448.12
2022-08-03T06:30:13.143Z,3375.00
2022-08-03T06:31:13.128Z,3105.00
2022-08-03T06:32:13.109Z,3403.12
2022-08-03T06:33:13.094Z,3571.88
2022-08-03T06:34:32.353Z,3667.50
2022-08-03T06:35:14.087Z,3695.62
2022-08-03T06:36:13.050Z,3870.00
2022-08-03T06:37:13.034Z,3903.75
2022-08-03T06:38:13.025Z,3526.88
2022-08-03T06:39:13.026Z,3453.75
2022-08-03T06:40:13.759Z,3802.50
2022-08-03T06:41:12.969Z,3836.25
2022-08-03T06:42:12.952Z,3718.12
2022-08-03T06:43:12.942Z,3774.38
2022-08-03T06:44:12.947Z,3864.38
2022-08-03T06:45:12.906Z,3706.88
2022-08-03T06:46:12.894Z,3746.25
2022-08-03T06:47:12.876Z,4027.50
2022-08-03T06:48:12.865Z,3937.50
2022-08-03T06:49:12.953Z,3915.00
2022-08-03T06:50:17.913Z,4021.88
2022-08-03T06:51:13.842Z,3954.38
2022-08-03T06:52:12.848Z,4258.12
2022-08-03T06:53:19.916Z,4432.50
2022-08-03T06:54:13.795Z,4117.50
2022-08-03T06:55:12.756Z,3751.88
2022-08-03T06:56:12.739Z,3723.75
2022-08-03T06:57:12.721Z,3808.12
2022-08-03T06:58:12.712Z,3600.00
2022-08-03T07:00:10.769Z,4275.00
2022-08-03T07:00:13.680Z,4230.00
2022-08-03T07:01:12.712Z,4038.75
2022-08-03T07:02:12.653Z,4061.25
2022-08-03T07:03:13.632Z,4235.62
2022-08-03T07:04:12.641Z,4173.75
2022-08-03T07:05:12.601Z,4128.75
2022-08-03T07:06:12.586Z,4100.62
2022-08-03T07:07:12.571Z,3892.50
2022-08-03T07:08:12.556Z,3915.00
2022-08-03T07:09:12.570Z,4185.00
2022-08-03T07:10:12.527Z,4134.38
2022-08-03T07:11:12.511Z,4010.62
2022-08-03T07:12:12.499Z,3830.62
2022-08-03T07:13:12.479Z,3903.75
2022-08-03T07:14:12.493Z,4179.38
2022-08-03T07:15:20.472Z,4207.50
2022-08-03T07:16:13.438Z,3690.00
2022-08-03T07:17:12.436Z,3436.88
2022-08-03T07:18:12.408Z,3740.62
2022-08-03T07:19:12.391Z,3526.88
2022-08-03T07:20:12.406Z,3515.62
2022-08-03T07:21:12.363Z,4140.00
2022-08-03T07:22:12.408Z,4235.62
2022-08-03T07:23:19.211Z,3875.62
2022-08-03T07:24:13.316Z,3864.38
2022-08-03T07:25:12.329Z,4230.00
2022-08-03T07:26:12.285Z,3808.12
2022-08-03T07:27:12.271Z,3510.00
2022-08-03T07:28:12.257Z,3785.62
2022-08-03T07:29:15.181Z,3650.62
2022-08-03T07:30:12.257Z,3571.88
2022-08-03T07:31:12.215Z,3948.75
2022-08-03T07:32:12.198Z,4100.62
2022-08-03T07:33:12.181Z,3448.12
2022-08-03T07:34:12.174Z,3448.12
2022-08-03T07:35:24.775Z,3746.25
2022-08-03T07:36:13.135Z,3796.88
2022-08-03T07:37:12.121Z,3971.25
2022-08-03T07:38:12.104Z,3718.12
2022-08-03T07:39:14.682Z,3571.88
2022-08-03T07:40:13.103Z,3774.38
2022-08-03T07:41:12.060Z,3886.88
2022-08-03T07:42:12.046Z,3796.88
2022-08-03T07:43:12.032Z,3903.75
2022-08-03T07:44:12.015Z,3791.25
2022-08-03T07:45:16.715Z,3808.12
2022-08-03T07:46:11.983Z,3886.88
2022-08-03T07:47:22.373Z,3774.38
2022-08-03T07:48:12.946Z,3768.75
2022-08-03T07:49:12.971Z,3881.25
2022-08-03T07:50:11.951Z,3735.00
2022-08-03T07:51:11.907Z,3678.75
2022-08-03T07:52:11.892Z,3819.38
2022-08-03T07:53:11.953Z,3099.38
2022-08-03T07:54:11.857Z,2660.62
2022-08-03T07:55:11.870Z,3054.38
2022-08-03T07:56:11.828Z,3408.75
2022-08-03T07:57:11.812Z,3622.50
2022-08-03T07:58:11.797Z,3746.25
2022-08-03T07:59:11.781Z,3898.12
2022-08-03T08:00:11.789Z,3881.25
2022-08-03T08:01:11.783Z,3785.62
2022-08-03T08:02:11.785Z,3729.38
2022-08-03T08:03:11.718Z,3448.12
2022-08-03T08:04:11.708Z,3313.12
2022-08-03T08:05:11.715Z,3729.38
2022-08-03T08:06:11.670Z,3774.38
2022-08-03T08:07:11.660Z,4095.00
2022-08-03T08:08:11.828Z,3802.50
2022-08-03T08:09:11.627Z,3915.00
2022-08-03T08:10:11.638Z,4100.62
2022-08-03T08:11:12.277Z,3718.12
2022-08-03T08:12:15.145Z,3723.75
2022-08-03T08:13:11.576Z,3808.12
2022-08-03T08:14:11.554Z,3633.75
2022-08-03T08:15:11.567Z,3504.38
2022-08-03T08:16:11.524Z,3667.50
2022-08-03T08:17:11.499Z,3982.50
2022-08-03T08:18:12.493Z,3999.38
2022-08-03T08:19:11.477Z,3802.50
2022-08-03T08:20:11.486Z,3571.88
2022-08-03T08:21:11.447Z,3841.88
2022-08-03T08:22:11.431Z,3853.12
2022-08-03T08:23:33.873Z,3555.00
2022-08-03T08:24:16.168Z,3549.38
2022-08-03T08:25:12.414Z,3881.25
2022-08-03T08:26:11.367Z,3611.25
2022-08-03T08:27:12.358Z,3481.88
2022-08-03T08:28:29.706Z,3633.75
2022-08-03T08:29:12.322Z,3780.00
2022-08-03T08:30:13.891Z,3622.50
2022-08-03T08:31:11.293Z,3290.62
2022-08-03T08:32:11.282Z,3690.00
2022-08-03T08:33:22.629Z,3526.88
2022-08-03T08:34:13.247Z,3363.75
2022-08-03T08:35:11.260Z,3594.38
2022-08-03T08:36:15.182Z,3436.88
2022-08-03T08:37:12.204Z,3206.25
2022-08-03T08:38:11.185Z,3526.88
2022-08-03T08:39:11.179Z,3335.62
2022-08-03T08:40:11.186Z,3256.88
2022-08-03T08:41:11.142Z,3285.00
2022-08-03T08:42:11.127Z,3397.50
2022-08-03T08:43:11.108Z,3538.12
2022-08-03T08:44:11.092Z,3611.25
2022-08-03T08:45:11.118Z,3313.12
2022-08-03T08:46:11.061Z,3240.00
2022-08-03T08:47:11.044Z,3240.00
2022-08-03T08:48:11.030Z,3172.50
2022-08-03T08:49:11.099Z,3279.38
2022-08-03T08:50:22.094Z,3566.25
2022-08-03T08:51:11.983Z,3313.12
2022-08-03T08:52:29.541Z,3155.62
2022-08-03T08:53:18.311Z,2863.12
2022-08-03T08:54:11.942Z,3352.50
2022-08-03T08:55:10.952Z,3802.50
2022-08-03T08:56:10.907Z,3279.38
2022-08-03T08:57:26.808Z,3217.50
2022-08-03T08:58:12.883Z,3465.00
2022-08-03T08:59:11.861Z,3543.75
2022-08-03T09:00:10.872Z,3206.25
2022-08-03T09:01:10.876Z,3459.38
2022-08-03T09:02:10.814Z,3313.12
2022-08-03T09:03:10.800Z,3116.25
2022-08-03T09:04:10.782Z,3127.50
2022-08-03T09:05:10.799Z,2868.75
2022-08-03T09:06:10.748Z,2880.00
2022-08-03T09:07:20.022Z,3217.50
2022-08-03T09:08:12.716Z,2851.88
2022-08-03T09:09:10.702Z,3037.50
2022-08-03T09:10:13.624Z,2812.50
2022-08-03T09:11:11.940Z,2683.12
2022-08-03T09:12:37.487Z,2598.75
2022-08-03T09:13:12.638Z,3043.12
2022-08-03T09:14:10.624Z,3093.75
2022-08-03T09:15:16.926Z,2756.25
2022-08-03T09:16:12.616Z,3003.75
2022-08-03T09:17:17.012Z,3088.12
2022-08-03T09:18:11.560Z,3015.00
2022-08-03T09:19:10.542Z,2981.25
2022-08-03T09:20:10.557Z,2621.25
2022-08-03T09:21:29.670Z,1771.88
2022-08-03T09:22:12.502Z,961.88
2022-08-03T09:23:44.529Z,720.00
2022-08-03T09:24:20.859Z,686.25
2022-08-03T09:25:24.209Z,658.12
2022-08-03T09:26:12.443Z,669.38
2022-08-03T09:27:10.416Z,663.75
2022-08-03T09:28:10.580Z,646.88
2022-08-03T09:29:14.803Z,641.25
2022-08-03T09:30:19.020Z,630.00
2022-08-03T09:31:11.356Z,624.38
2022-08-03T09:32:10.338Z,613.12
2022-08-03T09:33:10.327Z,607.50
2022-08-03T09:34:10.295Z,601.88
2022-08-03T09:35:11.314Z,596.25
2022-08-03T09:36:10.274Z,590.62
2022-08-03T09:37:10.254Z,585.00
2022-08-03T09:38:13.830Z,579.38
2022-08-03T09:39:10.218Z,573.75
2022-08-03T09:40:10.233Z,568.12
2022-08-03T09:41:10.187Z,568.12
2022-08-03T09:42:10.210Z,562.50
2022-08-03T09:43:10.157Z,556.88
2022-08-03T09:44:24.007Z,556.88
2022-08-03T09:45:11.152Z,551.25
2022-08-03T09:46:10.104Z,551.25
2022-08-03T09:47:10.096Z,545.62
2022-08-03T09:48:10.071Z,545.62
2022-08-03T09:49:11.667Z,540.00
2022-08-03T09:50:10.766Z,540.00
2022-08-03T09:51:13.266Z,534.38
2022-08-03T09:52:38.429Z,534.38
2022-08-03T09:53:10.986Z,528.75
2022-08-03T09:54:17.621Z,528.75
2022-08-03T09:55:23.586Z,528.75
2022-08-03T09:56:36.049Z,523.12
2022-08-03T09:57:10.917Z,523.12
2022-08-03T09:58:09.901Z,523.12
2022-08-03T09:59:09.885Z,517.50
2022-08-03T10:00:09.901Z,517.50
2022-08-03T10:01:14.827Z,517.50
2022-08-03T10:02:10.867Z,517.50
2022-08-03T10:03:09.815Z,511.88
2022-08-03T10:04:09.795Z,511.88
2022-08-03T10:05:09.816Z,511.88
2022-08-03T10:06:09.765Z,506.25
2022-08-03T10:07:09.747Z,506.25
2022-08-03T10:08:09.737Z,500.62
2022-08-03T10:09:09.713Z,500.62
2022-08-03T10:10:30.402Z,500.62
2022-08-03T10:11:10.681Z,495.00
2022-08-03T10:12:09.666Z,495.00
2022-08-03T10:13:09.641Z,495.00
2022-08-03T10:14:09.620Z,495.00
2022-08-03T10:15:09.635Z,495.00
2022-08-03T10:16:23.903Z,495.00
2022-08-03T10:17:10.586Z,489.38
2022-08-03T10:18:09.553Z,489.38
2022-08-03T10:19:09.540Z,495.00
2022-08-03T10:20:09.553Z,495.00
2022-08-03T10:21:09.508Z,489.38
2022-08-03T10:22:09.484Z,483.75
2022-08-03T10:23:09.468Z,489.38
2022-08-03T10:24:09.448Z,495.00
2022-08-03T10:25:09.453Z,495.00
2022-08-03T10:26:10.420Z,495.00
2022-08-03T10:27:09.393Z,495.00
2022-08-03T10:28:09.406Z,495.00
2022-08-03T10:29:10.063Z,495.00
2022-08-03T10:30:09.336Z,495.00
2022-08-03T10:31:09.323Z,495.00
2022-08-03T10:32:09.303Z,495.00
2022-08-03T10:33:15.315Z,495.00
2022-08-03T10:34:10.266Z,489.38
2022-08-03T10:35:19.636Z,450.00
2022-08-03T10:36:10.264Z,472.50
2022-08-03T10:37:09.221Z,495.00
2022-08-03T10:38:09.198Z,500.62
2022-08-03T10:39:16.110Z,500.62
2022-08-03T10:40:10.209Z,500.62
2022-08-03T10:41:09.171Z,500.62
2022-08-03T10:42:14.671Z,500.62
2022-08-03T10:43:10.112Z,500.62
2022-08-03T10:44:09.093Z,500.62
2022-08-03T10:45:09.072Z,500.62
2022-08-03T10:46:09.085Z,500.62
2022-08-03T10:47:09.043Z,500.62
2022-08-03T10:48:09.043Z,495.00
2022-08-03T10:49:09.161Z,483.75
2022-08-03T10:50:08.988Z,500.62
2022-08-03T10:51:08.994Z,500.62
2022-08-03T10:52:28.027Z,500.62
2022-08-03T10:53:09.941Z,500.62
2022-08-03T10:54:11.853Z,506.25
2022-08-03T10:55:10.187Z,500.62
2022-08-03T10:56:08.911Z,500.62
2022-08-03T10:57:14.388Z,506.25
2022-08-03T10:58:11.340Z,450.00
2022-08-03T10:59:09.858Z,461.25
2022-08-03T11:00:08.806Z,450.00
2022-08-03T11:01:08.908Z,433.12
2022-08-03T11:02:08.767Z,489.38
2022-08-03T11:03:08.833Z,489.38
2022-08-03T11:04:11.886Z,495.00
2022-08-03T11:05:10.718Z,500.62
2022-08-03T11:06:08.725Z,506.25
2022-08-03T11:07:08.682Z,506.25
2022-08-03T11:08:08.662Z,506.25
2022-08-03T11:09:08.653Z,506.25
2022-08-03T11:10:10.629Z,506.25
2022-08-03T11:11:09.636Z,500.62
2022-08-03T11:12:08.591Z,500.62
2022-08-03T11:13:08.575Z,495.00
2022-08-03T11:14:08.556Z,495.00
2022-08-03T11:15:08.538Z,495.00
2022-08-03T11:16:14.154Z,489.38
2022-08-03T11:17:14.629Z,489.38
2022-08-03T11:18:08.486Z,489.38
2022-08-03T11:19:08.470Z,483.75
2022-08-03T11:20:08.448Z,478.12
2022-08-03T11:21:08.459Z,466.88
2022-08-03T11:22:08.415Z,461.25
2022-08-03T11:23:08.398Z,472.50
2022-08-03T11:24:08.395Z,472.50
2022-08-03T11:25:08.365Z,472.50
2022-08-03T11:26:09.370Z,472.50
2022-08-03T11:27:08.326Z,472.50
2022-08-03T11:28:08.308Z,472.50
2022-08-03T11:29:08.311Z,472.50
2022-08-03T11:30:08.283Z,466.88
2022-08-03T11:31:08.284Z,466.88
2022-08-03T11:32:08.236Z,466.88
2022-08-03T11:33:08.228Z,466.88
2022-08-03T11:34:08.204Z,466.88
2022-08-03T11:35:08.180Z,466.88
2022-08-03T11:36:08.192Z,461.25
2022-08-03T11:37:08.148Z,466.88
2022-08-03T11:38:08.134Z,461.25
2022-08-03T11:39:08.100Z,466.88
2022-08-03T11:40:09.173Z,461.25
2022-08-03T11:41:08.099Z,461.25
2022-08-03T11:42:08.061Z,461.25
2022-08-03T11:43:08.041Z,466.88
2022-08-03T11:44:08.021Z,466.88
2022-08-03T11:45:08.006Z,466.88
2022-08-03T11:46:08.018Z,466.88
2022-08-03T11:47:07.975Z,466.88
2022-08-03T11:48:07.951Z,472.50
2022-08-03T11:49:10.913Z,472.50
2022-08-03T11:50:08.966Z,461.25
2022-08-03T11:51:07.927Z,450.00
2022-08-03T11:52:07.887Z,405.00
2022-08-03T11:53:07.866Z,455.62
2022-08-03T11:54:07.854Z,472.50
2022-08-03T11:55:07.829Z,466.88
2022-08-03T11:56:12.716Z,461.25
2022-08-03T11:57:08.789Z,444.38
2022-08-03T11:59:16.666Z,466.88
2022-08-03T11:59:19.879Z,466.88
2022-08-03T12:00:08.743Z,466.88
2022-08-03T12:01:07.753Z,466.88
2022-08-03T12:02:07.706Z,472.50
2022-08-03T12:03:07.777Z,472.50
2022-08-03T12:04:07.674Z,478.12
2022-08-03T12:05:07.654Z,478.12
2022-08-03T12:06:07.659Z,489.38
2022-08-03T12:07:07.617Z,489.38
2022-08-03T12:08:07.603Z,495.00
2022-08-03T12:09:07.582Z,500.62
2022-08-03T12:10:07.591Z,500.62
2022-08-03T12:11:07.575Z,506.25
2022-08-03T12:12:07.523Z,506.25
2022-08-03T12:14:26.893Z,511.88
2022-08-03T12:14:45.550Z,511.88
2022-08-03T12:15:08.471Z,517.50
2022-08-03T12:16:07.481Z,517.50
2022-08-03T12:17:07.447Z,517.50
2022-08-03T12:18:08.413Z,523.12
2022-08-03T12:19:07.399Z,517.50
2022-08-03T12:20:07.446Z,523.12
2022-08-03T12:21:07.391Z,523.12
2022-08-03T12:22:07.348Z,523.12
2022-08-03T12:23:07.330Z,517.50
2022-08-03T12:24:07.311Z,517.50
2022-08-03T12:25:07.301Z,517.50
2022-08-03T12:26:07.304Z,511.88
2022-08-03T12:27:07.262Z,511.88
2022-08-03T12:28:36.331Z,506.25
2022-08-03T12:29:08.224Z,506.25
2022-08-03T12:30:07.297Z,500.62
2022-08-03T12:31:07.216Z,500.62
2022-08-03T12:32:07.170Z,495.00
2022-08-03T12:33:07.181Z,495.00